Time;durP1;ratioP1;P1;durP2;ratioP2;P2;SDS_P1;SDS_P2;PMS_P1;PMS_P2;Temp;Humidity;BMP_temperature;BMP_pressure;BME280_temperature;BME280_humidity;BME280_pressure;Samples;Min_cycle;Max_cycle;Signal;HPM_P1;HPM_P2
2022/12/14 00:00:43;;;;;;;34.67;19.87;;;-7.10;99.90;;;;;;4964315;28;20220;-77
2022/12/14 00:03:09;;;;;;;30.20;17.97;;;-7.00;99.90;;;;;;4965240;28;20212;-78
2022/12/14 00:05:35;;;;;;;28.83;17.33;;;-6.80;1.00;;;;;;4965696;28;20539;-77
2022/12/14 00:08:01;;;;;;;29.40;16.77;;;-6.80;99.90;;;;;;4964994;28;20342;-77
2022/12/14 00:10:26;;;;;;;29.87;16.93;;;-6.90;99.90;;;;;;4961840;28;20195;-77
2022/12/14 00:12:52;;;;;;;29.60;17.27;;;-6.80;99.90;;;;;;4962249;28;20216;-78
2022/12/14 00:15:18;;;;;;;24.67;15.00;;;-7.00;99.90;;;;;;4961772;28;20191;-77
2022/12/14 00:17:43;;;;;;;27.93;15.80;;;-7.00;99.90;;;;;;4962969;28;20540;-77
2022/12/14 00:20:09;;;;;;;28.93;16.20;;;-7.00;99.90;;;;;;4962288;28;20686;-78
2022/12/14 00:22:35;;;;;;;25.60;15.60;;;-6.90;99.90;;;;;;4962138;28;20205;-78
2022/12/14 00:25:01;;;;;;;27.00;15.53;;;-6.90;99.90;;;;;;4959291;28;20192;-77
2022/12/14 00:27:27;;;;;;;29.30;16.73;;;-6.90;99.90;;;;;;4962680;28;20191;-79
2022/12/14 00:29:53;;;;;;;23.90;13.77;;;-7.00;99.90;;;;;;4964846;28;20563;-78
2022/12/14 00:32:18;;;;;;;24.47;14.87;;;-7.00;99.90;;;;;;4964946;28;20200;-78
2022/12/14 00:34:44;;;;;;;28.50;15.77;;;-7.00;99.90;;;;;;4965873;28;20228;-78
2022/12/14 00:37:10;;;;;;;40.37;19.80;;;-7.00;99.90;;;;;;4964831;28;20189;-78
2022/12/14 00:39:35;;;;;;;27.53;15.77;;;-7.00;99.90;;;;;;4966548;28;20291;-78
2022/12/14 00:42:01;;;;;;;25.63;15.17;;;-7.00;99.90;;;;;;4966264;28;20200;-78
2022/12/14 00:44:26;;;;;;;31.43;16.97;;;-7.00;99.90;;;;;;4966816;28;20213;-78
2022/12/14 00:46:52;;;;;;;30.93;16.87;;;-6.90;99.90;;;;;;4965026;28;20557;-78
2022/12/14 00:49:17;;;;;;;23.17;14.00;;;-7.00;99.90;;;;;;4965860;28;20233;-78
2022/12/14 00:51:43;;;;;;;22.27;13.93;;;-6.90;99.90;;;;;;4966120;28;20184;-78
2022/12/14 00:54:09;;;;;;;35.70;19.07;;;-6.80;99.90;;;;;;4964359;28;20259;-78
2022/12/14 00:56:35;;;;;;;61.07;27.23;;;-6.80;99.90;;;;;;4964430;28;20188;-79
2022/12/14 00:59:00;;;;;;;24.83;14.77;;;-6.80;99.90;;;;;;4964876;28;20193;-80
2022/12/14 01:01:26;;;;;;;26.13;15.03;;;-6.80;99.90;;;;;;4964455;28;20234;-79
2022/12/14 01:04:15;;;;;;;23.80;13.77;;;-6.80;99.90;;;;;;4964875;28;20465;-78
2022/12/14 01:06:37;;;;;;;25.13;15.27;;;-6.80;99.90;;;;;;4964712;28;20189;-78
2022/12/14 01:09:02;;;;;;;45.20;24.43;;;-6.80;99.90;;;;;;4967043;28;20196;-79
2022/12/14 01:11:28;;;;;;;37.30;20.37;;;-6.70;99.90;;;;;;4964214;28;20196;-75
2022/12/14 01:13:55;;;;;;;27.37;15.03;;;-6.70;99.90;;;;;;4963691;28;20678;-79
2022/12/14 01:16:21;;;;;;;35.70;20.37;;;-6.60;99.90;;;;;;4962865;28;20189;-77
2022/12/14 01:18:46;;;;;;;29.60;18.43;;;-6.60;99.90;;;;;;4963274;28;20203;-78
2022/12/14 01:21:18;;;;;;;23.03;14.00;;;-6.60;99.90;;;;;;4963043;28;20440;-77
2022/12/14 01:23:46;;;;;;;24.97;15.10;;;-6.60;99.90;;;;;;4965232;28;20756;-79
2022/12/14 01:26:13;;;;;;;21.07;13.37;;;-6.60;99.90;;;;;;4964012;28;20255;-79
2022/12/14 01:28:39;;;;;;;22.47;13.63;;;-6.70;99.90;;;;;;4961892;28;20193;-77
2022/12/14 01:31:16;;;;;;;23.30;13.77;;;-6.80;99.90;;;;;;4961547;28;20203;-78
2022/12/14 01:33:43;;;;;;;20.53;11.90;;;-6.60;99.90;;;;;;4962097;28;20204;-79
2022/12/14 01:36:14;;;;;;;23.30;13.80;;;-6.80;99.90;;;;;;4963547;28;20177;-77
2022/12/14 01:38:40;;;;;;;20.30;12.07;;;-6.80;99.90;;;;;;4963457;28;20181;-79
2022/12/14 01:41:08;;;;;;;18.43;11.43;;;-6.80;99.90;;;;;;4962972;28;20213;-79
2022/12/14 01:43:50;;;;;;;29.57;17.37;;;-6.80;99.90;;;;;;4963136;28;20208;-79
2022/12/14 01:46:29;;;;;;;18.87;11.70;;;-6.70;99.90;;;;;;4963019;28;20600;-77
2022/12/14 01:49:19;;;;;;;30.23;18.10;;;-6.70;99.90;;;;;;4963508;28;20280;-77
2022/12/14 01:52:07;;;;;;;24.17;15.20;;;-6.60;99.90;;;;;;4963943;28;20185;-77
2022/12/14 01:54:39;;;;;;;21.00;13.53;;;-6.50;99.90;;;;;;4962992;28;20561;-77
2022/12/14 01:57:05;;;;;;;18.77;11.57;;;-6.60;99.90;;;;;;4964017;28;20180;-77
2022/12/14 01:59:35;;;;;;;18.40;11.43;;;-6.40;99.90;;;;;;4963474;28;20196;-79
2022/12/14 02:02:05;;;;;;;19.07;11.43;;;-6.70;99.90;;;;;;4963182;28;20303;-78
2022/12/14 02:04:34;;;;;;;20.63;12.43;;;-6.70;99.90;;;;;;4962409;28;20606;-79
2022/12/14 02:07:02;;;;;;;19.20;11.40;;;-6.70;99.90;;;;;;4965898;28;20252;-79
2022/12/14 02:09:34;;;;;;;23.17;13.27;;;-6.60;99.90;;;;;;4968126;28;20185;-78
2022/12/14 02:12:10;;;;;;;31.03;16.77;;;-6.50;99.90;;;;;;4969178;28;20199;-78
2022/12/14 02:14:35;;;;;;;20.97;12.77;;;-6.60;99.90;;;;;;4967344;28;20666;-79
2022/12/14 02:17:02;;;;;;;22.10;12.30;;;-6.70;99.90;;;;;;4967996;28;20185;-78
2022/12/14 02:19:27;;;;;;;27.87;16.10;;;-6.60;99.90;;;;;;4968059;28;20188;-78
2022/12/14 02:21:56;;;;;;;21.73;13.30;;;-6.70;99.90;;;;;;4966264;28;20189;-78
2022/12/14 02:24:33;;;;;;;28.60;16.00;;;-6.70;99.90;;;;;;4966789;28;20666;-79
2022/12/14 02:27:32;;;;;;;24.40;14.60;;;-6.60;99.90;;;;;;4967059;28;20189;-78
2022/12/14 02:30:05;;;;;;;22.17;13.23;;;-6.50;99.90;;;;;;4965272;28;20335;-77
2022/12/14 02:32:36;;;;;;;21.03;12.53;;;-6.60;99.90;;;;;;4966146;28;20188;-79
2022/12/14 02:35:11;;;;;;;27.13;14.47;;;-6.60;99.90;;;;;;4968485;28;20204;-76
2022/12/14 02:37:56;;;;;;;26.23;13.83;;;-6.60;99.90;;;;;;4968611;28;20440;-79
2022/12/14 02:40:29;;;;;;;21.97;12.33;;;-6.60;99.90;;;;;;4968517;28;20217;-78
2022/12/14 02:43:20;;;;;;;18.73;12.33;;;-6.60;99.90;;;;;;4967740;28;20209;-78
2022/12/14 02:46:03;;;;;;;30.27;16.50;;;-6.60;99.90;;;;;;4968418;28;20191;-78
2022/12/14 02:48:36;;;;;;;36.57;18.60;;;-6.70;99.90;;;;;;4967639;28;20686;-78
2022/12/14 02:51:23;;;;;;;28.43;15.40;;;-6.70;99.90;;;;;;4969056;28;20193;-78
2022/12/14 02:54:07;;;;;;;28.57;15.23;;;-6.60;99.90;;;;;;4965416;28;20287;-79
2022/12/14 02:56:43;;;;;;;24.33;13.83;;;-6.60;99.90;;;;;;4967402;28;20193;-78
2022/12/14 02:59:10;;;;;;;26.70;16.20;;;-6.70;99.90;;;;;;4966701;28;20192;-78
2022/12/14 03:01:37;;;;;;;20.23;13.03;;;-6.70;99.90;;;;;;4966342;28;20224;-79
2022/12/14 03:04:03;;;;;;;20.27;12.87;;;-6.80;99.90;;;;;;4965864;28;21301;-79
2022/12/14 03:06:29;;;;;;;20.27;12.53;;;-6.70;99.90;;;;;;4965045;28;20648;-79
2022/12/14 03:09:06;;;;;;;20.73;11.80;;;-6.80;99.90;;;;;;4966197;28;20187;-80
2022/12/14 03:12:05;;;;;;;19.87;12.33;;;-6.80;99.90;;;;;;4965255;28;20197;-79
2022/12/14 03:14:40;;;;;;;21.37;11.97;;;-6.80;99.90;;;;;;4965949;28;20303;-77
2022/12/14 03:17:26;;;;;;;20.43;12.53;;;-6.90;99.90;;;;;;4965023;28;20197;-80
2022/12/14 03:19:56;;;;;;;23.10;12.63;;;-6.80;99.90;;;;;;4962898;28;20271;-79
2022/12/14 03:22:38;;;;;;;22.57;12.63;;;-6.80;99.90;;;;;;4965986;28;20194;-77
2022/12/14 03:25:27;;;;;;;19.83;12.27;;;-6.80;99.90;;;;;;4965491;28;20223;-77
2022/12/14 03:28:07;;;;;;;41.90;20.90;;;-6.80;99.90;;;;;;4965990;28;20196;-79
2022/12/14 03:30:36;;;;;;;19.90;12.17;;;-6.80;99.90;;;;;;4965770;28;20189;-79
2022/12/14 03:33:06;;;;;;;33.03;16.43;;;-6.80;99.90;;;;;;4965479;28;20212;-79
2022/12/14 03:35:38;;;;;;;43.07;21.47;;;-6.80;99.90;;;;;;4965313;28;20185;-79
2022/12/14 03:38:19;;;;;;;32.23;17.07;;;-6.80;99.90;;;;;;4965961;28;20199;-79
2022/12/14 03:40:58;;;;;;;39.40;20.60;;;-6.70;99.90;;;;;;4965858;28;20219;-79
2022/12/14 03:43:34;;;;;;;43.60;23.57;;;-6.60;99.90;;;;;;4964407;28;20240;-78
2022/12/14 03:46:14;;;;;;;30.37;21.17;;;-6.50;99.90;;;;;;4966551;28;20184;-78
2022/12/14 03:48:50;;;;;;;21.07;13.50;;;-6.40;99.90;;;;;;4965014;28;20185;-78
2022/12/14 03:51:41;;;;;;;19.03;12.03;;;-6.40;99.90;;;;;;4965194;28;20184;-79
2022/12/14 03:54:20;;;;;;;16.07;11.10;;;-5.70;99.90;;;;;;4963782;28;20632;-79
2022/12/14 03:56:54;;;;;;;19.33;10.73;;;-6.30;99.90;;;;;;4965738;28;20188;-79
2022/12/14 03:59:49;;;;;;;18.17;11.30;;;-6.30;99.90;;;;;;4966522;28;20244;-78
2022/12/14 04:02:29;;;;;;;17.07;9.83;;;-6.40;99.90;;;;;;4969628;28;20205;-77
2022/12/14 04:05:06;;;;;;;16.43;9.37;;;-6.40;99.90;;;;;;4967074;28;20204;-79
2022/12/14 04:07:46;;;;;;;14.90;9.53;;;-6.40;99.90;;;;;;4965075;28;20203;-79
2022/12/14 04:19:02;;;;;;;15.27;9.53;;;-6.60;99.90;;;;;;4966825;28;20184;-78
2022/12/14 04:21:50;;;;;;;13.97;9.03;;;-6.60;99.90;;;;;;4966756;28;20216;-79
2022/12/14 04:27:27;;;;;;;16.23;9.40;;;-6.70;99.90;;;;;;4967004;28;20243;-78
2022/12/14 04:29:59;;;;;;;15.20;9.43;;;-6.80;99.90;;;;;;4967833;28;20199;-78
2022/12/14 04:32:32;;;;;;;14.50;9.50;;;-6.80;99.90;;;;;;4968260;28;20235;-78
2022/12/14 04:35:01;;;;;;;15.73;9.57;;;-6.80;99.90;;;;;;4966529;28;20194;-78
2022/12/14 04:37:27;;;;;;;14.30;8.83;;;-6.80;99.90;;;;;;4966372;28;20243;-78
2022/12/14 04:40:04;;;;;;;14.30;9.13;;;-6.80;99.90;;;;;;4967240;28;20296;-79
2022/12/14 04:42:35;;;;;;;14.57;9.10;;;-6.80;99.90;;;;;;4965870;28;20184;-80
2022/12/14 04:45:06;;;;;;;13.57;8.53;;;-8.20;99.90;;;;;;4965834;28;20889;-77
2022/12/14 04:47:37;;;;;;;14.60;8.73;;;-7.00;99.90;;;;;;4966513;28;20862;-77
2022/12/14 04:50:28;;;;;;;14.37;9.07;;;-7.00;99.90;;;;;;4966264;28;20279;-77
2022/12/14 04:53:04;;;;;;;14.53;8.40;;;-7.00;99.90;;;;;;4966234;28;20226;-77
2022/12/14 04:55:41;;;;;;;12.37;8.13;;;-7.00;99.90;;;;;;4966023;28;20215;-79
2022/12/14 04:58:17;;;;;;;14.00;9.03;;;-7.00;99.90;;;;;;4966230;28;20203;-79
2022/12/14 05:01:17;;;;;;;14.33;8.83;;;-7.10;99.90;;;;;;4964785;28;20578;-78
2022/12/14 05:04:03;;;;;;;14.57;8.60;;;-7.20;99.90;;;;;;4964421;28;20440;-79
2022/12/14 05:06:55;;;;;;;16.47;9.07;;;-7.30;99.90;;;;;;4965525;28;20274;-79
2022/12/14 05:09:25;;;;;;;17.10;10.10;;;-7.30;99.90;;;;;;4965312;28;20277;-79
2022/12/14 05:11:56;;;;;;;16.03;9.83;;;-7.40;99.90;;;;;;4963996;28;20251;-79
2022/12/14 05:14:27;;;;;;;14.77;8.47;;;-7.40;99.90;;;;;;4964849;28;20262;-78
2022/12/14 05:16:53;;;;;;;14.57;9.00;;;-7.40;99.90;;;;;;4964200;28;20199;-77
2022/12/14 05:19:19;;;;;;;16.70;9.30;;;-7.30;99.90;;;;;;4965028;28;20185;-77
2022/12/14 05:21:48;;;;;;;12.73;8.13;;;-7.20;99.90;;;;;;4965533;28;20213;-77
2022/12/14 05:24:15;;;;;;;14.00;8.43;;;-7.20;99.90;;;;;;4963649;28;20208;-77
2022/12/14 05:26:40;;;;;;;11.73;8.23;;;-7.00;99.90;;;;;;4966438;28;20185;-77
2022/12/14 05:29:06;;;;;;;11.90;7.57;;;-6.90;99.90;;;;;;4964511;28;20188;-77
2022/12/14 05:31:32;;;;;;;12.43;7.77;;;-6.90;99.90;;;;;;4966467;28;20501;-78
2022/12/14 05:33:57;;;;;;;13.03;8.47;;;-7.00;99.90;;;;;;4964974;28;20251;-78
2022/12/14 05:36:23;;;;;;;12.23;7.47;;;-7.00;99.90;;;;;;4966371;28;20250;-78
2022/12/14 05:38:49;;;;;;;10.57;6.77;;;-6.50;99.90;;;;;;4967771;28;20189;-77
2022/12/14 05:41:14;;;;;;;11.90;7.97;;;-7.00;99.90;;;;;;4970870;28;20197;-78
2022/12/14 05:43:40;;;;;;;12.00;7.47;;;-7.00;99.90;;;;;;4969588;28;20209;-77
2022/12/14 05:46:07;;;;;;;12.97;7.57;;;-6.50;99.90;;;;;;4971292;28;20665;-76
2022/12/14 05:48:33;;;;;;;12.80;7.77;;;-7.20;99.90;;;;;;4974174;28;20202;-77
2022/12/14 05:51:06;;;;;;;14.30;8.83;;;-7.10;99.90;;;;;;4973027;28;20191;-75
2022/12/14 05:53:33;;;;;;;12.30;7.90;;;-7.10;99.90;;;;;;4974015;28;20220;-78
2022/12/14 05:55:58;;;;;;;14.87;9.00;;;-7.00;99.90;;;;;;4974246;28;20265;-75
2022/12/14 05:58:24;;;;;;;15.67;9.37;;;-7.10;99.90;;;;;;4972992;28;20226;-77
2022/12/14 06:00:49;;;;;;;13.23;8.40;;;-7.20;99.90;;;;;;4975239;28;20667;-79
2022/12/14 06:03:15;;;;;;;15.90;9.20;;;-7.30;99.90;;;;;;4975553;28;20287;-78
2022/12/14 06:05:41;;;;;;;15.03;8.70;;;-7.30;99.90;;;;;;4974341;28;20522;-78
2022/12/14 06:08:07;;;;;;;18.90;9.47;;;-7.40;99.90;;;;;;4973345;28;20185;-78
2022/12/14 06:10:32;;;;;;;17.67;10.40;;;-7.40;99.90;;;;;;4974632;28;20189;-77
2022/12/14 06:12:58;;;;;;;14.13;8.57;;;-7.50;99.90;;;;;;4973345;28;20223;-78
2022/12/14 06:15:23;;;;;;;16.17;9.50;;;-7.50;99.90;;;;;;4972983;28;20203;-78
2022/12/14 06:17:49;;;;;;;17.80;9.47;;;-7.50;99.90;;;;;;4974377;28;20189;-78
2022/12/14 06:20:15;;;;;;;15.73;9.40;;;-7.50;99.90;;;;;;4974333;28;20212;-76
2022/12/14 06:22:40;;;;;;;17.63;10.40;;;-7.50;99.90;;;;;;4977273;28;20522;-76
2022/12/14 06:25:06;;;;;;;14.23;8.67;;;-7.50;99.90;;;;;;4973225;28;20185;-76
2022/12/14 06:27:32;;;;;;;15.53;9.07;;;-7.50;99.90;;;;;;4974377;28;20658;-76
2022/12/14 06:29:58;;;;;;;16.47;9.57;;;-7.50;99.90;;;;;;4973375;28;20223;-78
2022/12/14 06:32:24;;;;;;;18.43;9.73;;;-7.50;99.90;;;;;;4974089;28;20188;-78
2022/12/14 06:34:50;;;;;;;15.97;10.10;;;-7.60;99.90;;;;;;4973858;28;20574;-78
2022/12/14 06:37:16;;;;;;;19.93;10.70;;;-7.50;99.90;;;;;;4973859;28;20181;-77
2022/12/14 06:39:41;;;;;;;22.93;11.47;;;-7.50;99.90;;;;;;4973194;28;20188;-77
2022/12/14 06:42:07;;;;;;;19.50;11.33;;;-7.60;99.90;;;;;;4973688;28;20188;-78
2022/12/14 06:44:33;;;;;;;16.73;11.73;;;-7.60;99.90;;;;;;4973468;28;20215;-77
2022/12/14 06:46:59;;;;;;;17.17;10.90;;;-7.60;99.90;;;;;;4974424;28;20272;-77
2022/12/14 06:49:24;;;;;;;17.23;10.27;;;-7.60;99.90;;;;;;4973385;28;20177;-77
2022/12/14 06:51:51;;;;;;;17.83;10.53;;;-7.60;99.90;;;;;;4971474;28;20196;-77
2022/12/14 06:54:17;;;;;;;14.50;10.00;;;-7.60;99.90;;;;;;4974513;28;20287;-77
2022/12/14 06:56:45;;;;;;;16.77;9.67;;;-7.40;99.90;;;;;;4976810;28;20220;-77
2022/12/14 06:59:12;;;;;;;18.70;10.73;;;-7.40;99.90;;;;;;4973891;28;20659;-76
2022/12/14 07:01:38;;;;;;;16.27;9.90;;;-7.00;99.90;;;;;;4973849;28;20235;-78
2022/12/14 07:04:06;;;;;;;17.50;10.73;;;-7.60;99.90;;;;;;4972221;28;20212;-78
2022/12/14 07:06:35;;;;;;;18.07;10.90;;;-7.50;99.90;;;;;;4973341;28;20225;-77
2022/12/14 07:09:01;;;;;;;17.50;10.37;;;-7.60;99.90;;;;;;4971817;28;20188;-77
2022/12/14 07:11:28;;;;;;;17.47;9.97;;;-7.60;99.90;;;;;;4972454;28;20189;-78
2022/12/14 07:13:54;;;;;;;19.33;11.33;;;-7.70;99.90;;;;;;4972071;28;20212;-77
2022/12/14 07:16:22;;;;;;;19.10;11.43;;;-7.70;99.90;;;;;;4973314;28;20659;-78
2022/12/14 07:18:48;;;;;;;20.67;10.80;;;-7.70;99.90;;;;;;4973510;28;20562;-79
2022/12/14 07:21:16;;;;;;;20.90;11.83;;;-7.70;99.90;;;;;;4970154;28;20205;-76
2022/12/14 07:23:43;;;;;;;17.17;11.00;;;-7.60;99.90;;;;;;4972356;28;20243;-76
2022/12/14 07:26:26;;;;;;;20.63;12.07;;;-7.60;99.90;;;;;;4972910;28;20180;-76
2022/12/14 07:28:52;;;;;;;19.43;11.77;;;-7.60;99.90;;;;;;4971227;28;20188;-76
2022/12/14 07:31:23;;;;;;;19.60;11.77;;;-7.70;99.90;;;;;;4972354;28;20180;-77
2022/12/14 07:33:53;;;;;;;20.27;11.20;;;-7.60;99.90;;;;;;4971851;28;20208;-76
2022/12/14 07:36:20;;;;;;;18.50;10.83;;;-7.60;99.90;;;;;;4971242;28;20266;-76
2022/12/14 07:38:47;;;;;;;15.77;9.73;;;-7.60;99.90;;;;;;4972396;28;20671;-77
2022/12/14 07:41:22;;;;;;;18.63;10.97;;;-7.50;99.90;;;;;;4973120;28;20201;-77
2022/12/14 07:43:48;;;;;;;16.60;10.10;;;-7.50;99.90;;;;;;4972864;28;20201;-76
2022/12/14 07:46:19;;;;;;;17.43;10.83;;;-7.40;99.90;;;;;;4969227;28;20184;-76
2022/12/14 07:48:50;;;;;;;15.60;10.53;;;-7.30;99.90;;;;;;4967514;28;20294;-77
2022/12/14 07:51:19;;;;;;;16.97;10.20;;;-7.30;99.90;;;;;;4965722;28;20184;-78
2022/12/14 07:53:45;;;;;;;18.23;11.63;;;-7.10;99.90;;;;;;4966159;28;20221;-78
2022/12/14 07:56:14;;;;;;;15.97;10.50;;;-7.10;99.90;;;;;;4964832;28;20193;-78
2022/12/14 07:58:40;;;;;;;30.87;19.07;;;-6.90;99.90;;;;;;4965908;28;20189;-76
2022/12/14 08:01:28;;;;;;;51.97;31.10;;;-6.50;99.90;;;;;;4965800;28;20244;-76
2022/12/14 08:03:58;;;;;;;27.47;19.47;;;-6.60;99.90;;;;;;4965292;28;20452;-77
2022/12/14 08:06:27;;;;;;;19.67;13.27;;;-6.60;99.90;;;;;;4966549;28;20191;-77
2022/12/14 08:08:53;;;;;;;18.23;11.60;;;-6.50;99.90;;;;;;4963866;28;20268;-77
2022/12/14 08:11:22;;;;;;;28.67;16.30;;;-6.40;99.90;;;;;;4965285;28;20220;-77
2022/12/14 08:13:52;;;;;;;89.00;38.43;;;-6.30;99.90;;;;;;4962509;28;20244;-79
2022/12/14 08:16:17;;;;;;;130.00;56.90;;;-6.40;99.90;;;;;;4964380;28;20181;-79
2022/12/14 08:18:43;;;;;;;69.63;37.73;;;-6.30;99.90;;;;;;4965113;28;20203;-76
2022/12/14 08:21:11;;;;;;;24.03;15.97;;;-6.20;99.90;;;;;;4964634;28;20208;-76
2022/12/14 08:23:37;;;;;;;19.10;12.07;;;-6.10;99.90;;;;;;4965772;28;20660;-78
2022/12/14 08:26:05;;;;;;;40.83;27.93;;;-6.00;99.90;;;;;;4965024;28;20220;-74
2022/12/14 08:28:31;;;;;;;37.40;28.67;;;-5.80;99.90;;;;;;4967114;28;20280;-78
2022/12/14 08:31:02;;;;;;;26.93;20.20;;;-5.60;99.90;;;;;;4966104;28;20271;-78
2022/12/14 08:33:28;;;;;;;19.23;13.20;;;-5.40;99.90;;;;;;4967354;28;20217;-79
2022/12/14 08:35:53;;;;;;;18.00;11.53;;;-5.20;99.90;;;;;;4963564;28;20193;-77
2022/12/14 08:38:19;;;;;;;14.40;9.27;;;-5.10;99.90;;;;;;4966952;28;20287;-79
2022/12/14 08:40:45;;;;;;;12.97;9.13;;;-5.10;99.90;;;;;;4964546;28;20205;-78
2022/12/14 08:43:10;;;;;;;16.73;10.43;;;-5.00;99.90;;;;;;4963212;28;20573;-77
2022/12/14 08:45:36;;;;;;;11.77;8.67;;;-5.00;99.90;;;;;;4962620;28;20640;-77
2022/12/14 08:48:02;;;;;;;13.43;9.20;;;-5.00;99.90;;;;;;4965309;28;20185;-77
2022/12/14 08:50:28;;;;;;;13.67;9.10;;;-5.00;99.90;;;;;;4966094;28;20184;-77
2022/12/14 08:52:54;;;;;;;15.27;9.87;;;-5.00;99.90;;;;;;4962424;28;20220;-76
2022/12/14 08:55:20;;;;;;;13.93;9.20;;;-4.90;99.90;;;;;;4965475;28;20191;-77
2022/12/14 08:57:46;;;;;;;13.70;9.30;;;-4.90;99.90;;;;;;4965198;28;20545;-74
2022/12/14 09:00:12;;;;;;;13.67;9.30;;;-4.90;99.90;;;;;;4964964;28;20298;-76
2022/12/14 09:02:38;;;;;;;17.57;10.93;;;-4.80;99.90;;;;;;4964451;28;20596;-77
2022/12/14 09:05:03;;;;;;;16.87;10.17;;;-4.80;99.90;;;;;;4967447;28;20291;-79
2022/12/14 09:07:29;;;;;;;15.63;9.87;;;-4.80;99.90;;;;;;4961066;28;20820;-79
2022/12/14 09:09:55;;;;;;;16.97;10.90;;;-4.70;99.90;;;;;;4961760;28;20196;-78
2022/12/14 09:12:22;;;;;;;16.87;10.73;;;-4.70;99.90;;;;;;4962223;28;20196;-79
2022/12/14 09:14:48;;;;;;;16.47;10.83;;;-4.60;99.90;;;;;;4959263;28;20205;-78
2022/12/14 09:17:15;;;;;;;14.23;9.63;;;-4.50;99.90;;;;;;4960845;28;20193;-76
2022/12/14 09:19:41;;;;;;;14.10;9.90;;;-4.40;99.90;;;;;;4960078;28;20189;-79
2022/12/14 09:22:07;;;;;;;13.47;9.93;;;-4.30;99.90;;;;;;4963806;28;20189;-75
2022/12/14 09:24:34;;;;;;;15.37;10.13;;;-3.00;99.90;;;;;;4969318;28;20271;-76
2022/12/14 09:27:00;;;;;;;15.27;10.93;;;-4.10;99.90;;;;;;4969391;28;20240;-76
2022/12/14 09:29:26;;;;;;;15.50;10.67;;;-3.90;99.90;;;;;;4968781;28;20192;-76
2022/12/14 09:31:53;;;;;;;17.40;11.73;;;-3.80;99.90;;;;;;4968764;28;20193;-77
2022/12/14 09:34:20;;;;;;;14.90;10.63;;;-3.70;99.90;;;;;;4968907;28;20213;-77
2022/12/14 09:36:46;;;;;;;17.27;12.43;;;-3.60;99.90;;;;;;4968456;28;20604;-75
2022/12/14 09:39:13;;;;;;;15.87;10.80;;;-3.50;99.90;;;;;;4966472;28;20268;-76
2022/12/14 09:41:42;;;;;;;15.33;10.23;;;-3.40;99.90;;;;;;4968469;28;20271;-77
2022/12/14 09:44:25;;;;;;;15.43;11.47;;;-3.60;99.90;;;;;;4968361;28;20215;-78
2022/12/14 09:46:51;;;;;;;14.67;9.47;;;-3.50;96.60;;;;;;4968570;28;20191;-76
2022/12/14 09:49:30;;;;;;;15.10;10.40;;;-3.50;98.50;;;;;;4969253;28;20180;-77
2022/12/14 09:52:03;;;;;;;15.07;10.23;;;-3.50;99.90;;;;;;4965817;28;20843;-77
2022/12/14 09:54:32;;;;;;;13.77;10.40;;;-3.50;99.90;;;;;;4968312;28;20209;-75
2022/12/14 09:57:03;;;;;;;14.83;10.37;;;-3.50;99.90;;;;;;4967019;28;20253;-78
2022/12/14 09:59:32;;;;;;;13.37;9.77;;;-3.40;90.40;;;;;;4966511;28;20658;-77
2022/12/14 10:02:04;;;;;;;13.73;10.47;;;-3.30;82.10;;;;;;4966582;28;21014;-77
2022/12/14 10:04:45;;;;;;;14.20;10.27;;;-3.30;58.70;;;;;;4967621;28;20705;-76
2022/12/14 10:07:23;;;;;;;13.37;10.23;;;-3.30;57.70;;;;;;4967783;28;20607;-77
2022/12/14 10:10:20;;;;;;;12.00;9.10;;;-3.30;50.80;;;;;;4967220;28;20180;-76
2022/12/14 10:12:54;;;;;;;16.37;10.93;;;-3.20;60.90;;;;;;4969093;28;20191;-76
2022/12/14 10:15:38;;;;;;;14.33;9.87;;;-3.20;50.90;;;;;;4965899;28;20192;-77
2022/12/14 10:18:10;;;;;;;13.73;9.20;;;-3.20;53.10;;;;;;4968981;28;20188;-76
2022/12/14 10:21:10;;;;;;;14.33;9.67;;;-3.30;53.90;;;;;;4967372;28;20241;-76
2022/12/14 10:23:40;;;;;;;14.37;9.77;;;-3.30;71.60;;;;;;4967170;28;20272;-77
2022/12/14 10:26:12;;;;;;;13.90;9.57;;;-3.30;68.60;;;;;;4970858;28;20200;-76
2022/12/14 10:28:51;;;;;;;15.57;9.47;;;-3.30;67.60;;;;;;4971181;28;20185;-76
2022/12/14 10:31:39;;;;;;;13.30;10.03;;;-3.30;63.10;;;;;;4967942;28;20193;-76
2022/12/14 10:34:21;;;;;;;12.40;9.40;;;-3.30;49.20;;;;;;4970586;28;20204;-76
2022/12/14 10:36:51;;;;;;;15.73;10.23;;;-3.30;47.00;;;;;;4970683;28;20191;-76
2022/12/14 10:39:26;;;;;;;14.63;9.20;;;-3.30;33.70;;;;;;4970058;28;20546;-77
2022/12/14 10:42:19;;;;;;;14.17;9.13;;;-3.30;37.00;;;;;;4968261;28;20215;-77
2022/12/14 10:45:04;;;;;;;12.63;8.90;;;-3.30;27.00;;;;;;4962214;28;20216;-77
2022/12/14 10:47:41;;;;;;;13.97;9.67;;;-3.30;18.10;;;;;;4963626;28;20217;-76
2022/12/14 10:50:32;;;;;;;12.17;9.07;;;-2.90;18.70;;;;;;4963145;28;20227;-76
2022/12/14 10:53:01;;;;;;;16.57;9.83;;;-3.50;26.70;;;;;;4964252;28;20216;-76
2022/12/14 10:55:33;;;;;;;14.73;10.57;;;-3.60;28.70;;;;;;4981648;28;20694;-77
2022/12/14 10:57:59;;;;;;;15.07;10.30;;;-3.70;37.70;;;;;;4968272;28;20196;-78
2022/12/14 11:00:25;;;;;;;16.77;11.33;;;-3.60;44.60;;;;;;4964357;28;20220;-77
2022/12/14 11:02:54;;;;;;;18.80;11.70;;;-3.60;42.70;;;;;;4963763;28;20185;-78
2022/12/14 11:05:36;;;;;;;16.47;11.33;;;-3.60;32.80;;;;;;4964731;28;20230;-76
2022/12/14 11:08:02;;;;;;;32.97;21.83;;;-3.60;30.70;;;;;;4964295;28;20215;-77
2022/12/14 11:10:31;;;;;;;43.90;28.00;;;-3.60;24.90;;;;;;4964260;28;20184;-75
2022/12/14 11:13:11;;;;;;;50.17;32.00;;;-3.70;23.40;;;;;;4961967;28;20304;-74
2022/12/14 11:15:46;;;;;;;80.00;49.30;;;-3.80;26.70;;;;;;4963161;28;20192;-75
2022/12/14 11:18:14;;;;;;;32.07;21.40;;;-4.00;30.70;;;;;;4964864;28;20219;-76
2022/12/14 11:20:56;;;;;;;36.13;24.30;;;-4.00;38.30;;;;;;4963171;28;20227;-77
2022/12/14 11:23:28;;;;;;;34.83;23.33;;;-4.10;42.70;;;;;;4963586;28;20280;-76
2022/12/14 11:26:02;;;;;;;33.23;21.80;;;-4.10;53.70;;;;;;4965294;28;20197;-78
2022/12/14 11:28:38;;;;;;;44.43;28.10;;;-4.10;59.10;;;;;;4965458;28;20192;-76
2022/12/14 11:31:23;;;;;;;36.40;19.73;;;-4.10;65.60;;;;;;4964208;28;20195;-80
2022/12/14 11:33:54;;;;;;;38.80;23.87;;;-4.10;79.10;;;;;;4967207;28;20216;-78
2022/12/14 11:36:38;;;;;;;39.00;23.07;;;-4.10;83.60;;;;;;4966243;28;20189;-74
2022/12/14 11:39:11;;;;;;;51.47;32.50;;;-4.00;90.30;;;;;;4962395;28;20201;-77
2022/12/14 11:41:47;;;;;;;30.50;19.23;;;-3.90;90.80;;;;;;4964954;28;20465;-75
2022/12/14 11:44:15;;;;;;;28.40;17.00;;;-3.90;94.10;;;;;;4964220;28;20234;-76
2022/12/14 11:46:48;;;;;;;29.77;19.83;;;-3.80;90.30;;;;;;4965877;28;20185;-77
2022/12/14 11:49:35;;;;;;;26.50;15.80;;;-3.80;85.40;;;;;;4966513;28;20690;-77
2022/12/14 11:52:03;;;;;;;21.70;14.90;;;-3.80;91.90;;;;;;4980853;28;20589;-75
2022/12/14 11:54:30;;;;;;;24.03;15.40;;;-3.80;92.20;;;;;;4965689;28;20675;-78
2022/12/14 11:57:09;;;;;;;24.20;15.67;;;-3.70;97.50;;;;;;4967958;28;20200;-77
2022/12/14 12:00:04;;;;;;;25.47;18.03;;;-3.70;88.70;;;;;;4964754;28;20207;-76
2022/12/14 12:02:32;;;;;;;25.37;16.57;;;-3.70;61.10;;;;;;4961625;28;20654;-74
2022/12/14 12:05:03;;;;;;;33.00;21.93;;;-3.70;68.90;;;;;;4966098;28;20641;-76
2022/12/14 12:07:38;;;;;;;25.77;17.70;;;-3.70;81.70;;;;;;4967922;28;20264;-78
2022/12/14 12:10:13;;;;;;;25.83;17.03;;;-3.60;99.90;;;;;;4967798;28;20184;-76
2022/12/14 12:12:46;;;;;;;24.53;16.73;;;-3.60;93.70;;;;;;4965054;28;20185;-74
2022/12/14 12:15:17;;;;;;;23.67;14.83;;;-3.60;96.70;;;;;;4965746;28;20213;-76
2022/12/14 12:17:46;;;;;;;31.30;19.43;;;-3.60;95.00;;;;;;4964521;28;20244;-76
2022/12/14 12:20:30;;;;;;;32.47;20.67;;;-3.60;97.50;;;;;;4965044;28;20209;-74
2022/12/14 12:23:02;;;;;;;25.67;17.93;;;-3.50;93.70;;;;;;4964856;28;20469;-79
2022/12/14 12:25:32;;;;;;;24.77;16.70;;;-3.50;93.90;;;;;;4965179;28;20185;-77
2022/12/14 12:28:11;;;;;;;25.57;17.20;;;-3.50;92.60;;;;;;4966837;28;20185;-78
2022/12/14 12:30:41;;;;;;;25.60;17.53;;;-3.40;99.00;;;;;;4965592;28;20633;-77
2022/12/14 12:33:23;;;;;;;24.87;16.67;;;-3.40;88.40;;;;;;4966852;28;21388;-75
2022/12/14 12:35:52;;;;;;;41.83;24.43;;;-3.30;68.60;;;;;;4966373;28;20336;-76
2022/12/14 12:38:40;;;;;;;24.83;16.37;;;-3.30;66.10;;;;;;4963380;28;20706;-78
2022/12/14 12:41:23;;;;;;;25.20;16.83;;;-3.40;91.10;;;;;;4965073;28;20318;-79
2022/12/14 12:43:57;;;;;;;22.73;15.47;;;-3.30;67.20;;;;;;4962285;28;20271;-78
2022/12/14 12:46:29;;;;;;;35.47;22.30;;;-3.40;74.50;;;;;;4963345;28;20195;-77
2022/12/14 12:49:08;;;;;;;25.97;16.87;;;-3.40;75.60;;;;;;4964930;28;20735;-77
2022/12/14 12:51:50;;;;;;;25.83;17.07;;;-3.40;80.40;;;;;;4964227;28;20302;-77
2022/12/14 12:54:22;;;;;;;27.07;17.83;;;-3.50;70.30;;;;;;4965575;28;20215;-76
2022/12/14 12:56:54;;;;;;;30.37;19.17;;;-3.50;65.00;;;;;;4963248;28;20337;-72
2022/12/14 12:59:29;;;;;;;31.17;19.10;;;-3.50;65.50;;;;;;4964420;28;20216;-78
2022/12/14 13:02:01;;;;;;;37.20;22.67;;;-3.40;71.60;;;;;;4962654;28;20674;-77
2022/12/14 13:04:34;;;;;;;31.27;19.03;;;-3.40;64.30;;;;;;4960114;28;20300;-77